sensor_id;sensor_type;location;lat;lon;timestamp;P1;durP1;ratioP1;P2;durP2;ratioP2
5237;SDS011;2639;49.700;7.962;2022-07-23T04:56:52;13.50;;;12.20;;
5237;SDS011;2639;49.700;7.962;2022-07-23T05:00:02;13.37;;;12.10;;
5237;SDS011;2639;49.700;7.962;2022-07-23T05:03:13;15.43;;;13.83;;
5237;SDS011;2639;49.700;7.962;2022-07-23T05:06:26;15.50;;;14.20;;
5237;SDS011;2639;49.700;7.962;2022-07-23T05:09:38;15.40;;;14.00;;
5237;SDS011;2639;49.700;7.962;2022-07-23T05:12:52;14.40;;;13.00;;
5237;SDS011;2639;49.700;7.962;2022-07-23T05:16:01;14.77;;;13.47;;
5237;SDS011;2639;49.700;7.962;2022-07-23T05:19:20;15.13;;;13.73;;
5237;SDS011;2639;49.700;7.962;2022-07-23T05:22:34;14.17;;;12.77;;
5237;SDS011;2639;49.700;7.962;2022-07-23T05:25:44;14.00;;;12.67;;
5237;SDS011;2639;49.700;7.962;2022-07-23T05:28:54;14.33;;;13.03;;
5237;SDS011;2639;49.700;7.962;2022-07-23T05:32:04;12.73;;;11.43;;
5237;SDS011;2639;49.700;7.962;2022-07-23T05:35:20;13.07;;;11.97;;
5237;SDS011;2639;49.700;7.962;2022-07-23T05:38:44;14.07;;;12.77;;
5237;SDS011;2639;49.700;7.962;2022-07-23T05:41:56;12.97;;;11.87;;
5237;SDS011;2639;49.700;7.962;2022-07-23T05:45:08;13.57;;;12.37;;
5237;SDS011;2639;49.700;7.962;2022-07-23T05:48:21;14.33;;;12.80;;
5237;SDS011;2639;49.700;7.962;2022-07-23T05:51:40;13.70;;;12.40;;
5237;SDS011;2639;49.700;7.962;2022-07-23T05:54:54;13.17;;;12.00;;
5237;SDS011;2639;49.700;7.962;2022-07-23T05:58:03;12.90;;;11.70;;
5237;SDS011;2639;49.700;7.962;2022-07-23T06:01:14;13.90;;;12.53;;
5237;SDS011;2639;49.700;7.962;2022-07-23T06:04:36;14.57;;;13.00;;
5237;SDS011;2639;49.700;7.962;2022-07-23T06:08:00;13.10;;;11.93;;
5237;SDS011;2639;49.700;7.962;2022-07-23T06:11:12;13.97;;;12.67;;
5237;SDS011;2639;49.700;7.962;2022-07-23T06:14:21;13.03;;;11.93;;
5237;SDS011;2639;49.700;7.962;2022-07-23T06:17:47;14.53;;;13.13;;
5237;SDS011;2639;49.700;7.962;2022-07-23T06:20:56;12.83;;;11.57;;
5237;SDS011;2639;49.700;7.962;2022-07-23T06:24:09;14.43;;;13.00;;
5237;SDS011;2639;49.700;7.962;2022-07-23T06:27:19;13.13;;;12.00;;
5237;SDS011;2639;49.700;7.962;2022-07-23T06:30:34;13.93;;;12.63;;
5237;SDS011;2639;49.700;7.962;2022-07-23T06:33:45;13.73;;;12.30;;
5237;SDS011;2639;49.700;7.962;2022-07-23T06:37:03;14.67;;;13.33;;
5237;SDS011;2639;49.700;7.962;2022-07-23T06:40:14;13.57;;;12.23;;
5237;SDS011;2639;49.700;7.962;2022-07-23T06:43:24;13.07;;;11.70;;
5237;SDS011;2639;49.700;7.962;2022-07-23T06:46:36;12.20;;;11.10;;
5237;SDS011;2639;49.700;7.962;2022-07-23T06:49:53;13.00;;;11.90;;
5237;SDS011;2639;49.700;7.962;2022-07-23T06:53:05;12.53;;;11.40;;
5237;SDS011;2639;49.700;7.962;2022-07-23T06:56:14;12.83;;;11.73;;
5237;SDS011;2639;49.700;7.962;2022-07-23T06:59:24;13.27;;;12.07;;
5237;SDS011;2639;49.700;7.962;2022-07-23T07:02:37;12.63;;;11.43;;
5237;SDS011;2639;49.700;7.962;2022-07-23T07:05:51;12.70;;;11.40;;
5237;SDS011;2639;49.700;7.962;2022-07-23T07:09:01;11.33;;;10.43;;
5237;SDS011;2639;49.700;7.962;2022-07-23T07:12:13;13.40;;;12.30;;
5237;SDS011;2639;49.700;7.962;2022-07-23T07:15:23;13.03;;;11.93;;
5237;SDS011;2639;49.700;7.962;2022-07-23T07:18:33;13.30;;;12.10;;
5237;SDS011;2639;49.700;7.962;2022-07-23T07:21:46;12.40;;;11.30;;
5237;SDS011;2639;49.700;7.962;2022-07-23T07:24:56;10.43;;;9.43;;
5237;SDS011;2639;49.700;7.962;2022-07-23T07:28:06;11.37;;;10.30;;
5237;SDS011;2639;49.700;7.962;2022-07-23T07:31:16;11.13;;;10.13;;
5237;SDS011;2639;49.700;7.962;2022-07-23T07:34:26;11.43;;;10.43;;
5237;SDS011;2639;49.700;7.962;2022-07-23T07:37:47;10.53;;;9.63;;
5237;SDS011;2639;49.700;7.962;2022-07-23T07:40:59;12.07;;;10.97;;
5237;SDS011;2639;49.700;7.962;2022-07-23T07:44:09;11.37;;;10.47;;
5237;SDS011;2639;49.700;7.962;2022-07-23T07:47:22;11.57;;;10.47;;
5237;SDS011;2639;49.700;7.962;2022-07-23T07:50:33;11.57;;;10.57;;
5237;SDS011;2639;49.700;7.962;2022-07-23T07:53:46;12.60;;;11.40;;
5237;SDS011;2639;49.700;7.962;2022-07-23T07:56:55;12.40;;;11.30;;
5237;SDS011;2639;49.700;7.962;2022-07-23T08:00:07;12.10;;;10.70;;
5237;SDS011;2639;49.700;7.962;2022-07-23T08:03:20;11.13;;;9.80;;
5237;SDS011;2639;49.700;7.962;2022-07-23T08:06:29;11.70;;;10.70;;
5237;SDS011;2639;49.700;7.962;2022-07-23T08:09:40;11.57;;;10.47;;
5237;SDS011;2639;49.700;7.962;2022-07-23T08:12:54;11.03;;;10.03;;
5237;SDS011;2639;49.700;7.962;2022-07-23T08:16:05;10.80;;;9.90;;
5237;SDS011;2639;49.700;7.962;2022-07-23T08:19:16;11.43;;;10.37;;
5237;SDS011;2639;49.700;7.962;2022-07-23T08:22:43;10.40;;;9.57;;
5237;SDS011;2639;49.700;7.962;2022-07-23T08:25:56;11.13;;;10.13;;
5237;SDS011;2639;49.700;7.962;2022-07-23T08:29:08;10.13;;;9.33;;
5237;SDS011;2639;49.700;7.962;2022-07-23T14:00:10;6.27;;;5.67;;
5237;SDS011;2639;49.700;7.962;2022-07-23T14:03:41;6.33;;;5.83;;
5237;SDS011;2639;49.700;7.962;2022-07-23T14:06:50;6.20;;;5.70;;
5237;SDS011;2639;49.700;7.962;2022-07-23T14:10:02;5.93;;;5.53;;
5237;SDS011;2639;49.700;7.962;2022-07-23T14:13:17;5.90;;;5.43;;
5237;SDS011;2639;49.700;7.962;2022-07-23T14:16:30;5.87;;;5.33;;
5237;SDS011;2639;49.700;7.962;2022-07-23T14:19:41;6.03;;;5.27;;
5237;SDS011;2639;49.700;7.962;2022-07-23T14:22:58;5.90;;;5.50;;
5237;SDS011;2639;49.700;7.962;2022-07-23T14:26:11;6.00;;;5.57;;
5237;SDS011;2639;49.700;7.962;2022-07-23T14:29:24;6.20;;;5.77;;
5237;SDS011;2639;49.700;7.962;2022-07-23T14:32:38;5.87;;;5.47;;
5237;SDS011;2639;49.700;7.962;2022-07-23T14:35:48;6.33;;;5.73;;
5237;SDS011;2639;49.700;7.962;2022-07-23T14:38:58;8.53;;;6.00;;
5237;SDS011;2639;49.700;7.962;2022-07-23T14:42:09;6.10;;;5.17;;
5237;SDS011;2639;49.700;7.962;2022-07-23T14:45:19;5.87;;;5.40;;
5237;SDS011;2639;49.700;7.962;2022-07-23T14:48:32;5.73;;;5.23;;
5237;SDS011;2639;49.700;7.962;2022-07-23T14:51:49;5.50;;;5.10;;
5237;SDS011;2639;49.700;7.962;2022-07-23T14:54:59;6.23;;;5.73;;
5237;SDS011;2639;49.700;7.962;2022-07-23T14:58:11;6.77;;;5.87;;
5237;SDS011;2639;49.700;7.962;2022-07-23T15:01:21;6.20;;;5.53;;
5237;SDS011;2639;49.700;7.962;2022-07-23T15:04:35;6.83;;;6.17;;
5237;SDS011;2639;49.700;7.962;2022-07-23T15:07:47;5.97;;;5.47;;
5237;SDS011;2639;49.700;7.962;2022-07-23T15:10:59;5.43;;;4.93;;
5237;SDS011;2639;49.700;7.962;2022-07-23T15:14:12;5.53;;;5.03;;
5237;SDS011;2639;49.700;7.962;2022-07-23T15:17:35;5.97;;;5.37;;
5237;SDS011;2639;49.700;7.962;2022-07-23T15:20:46;5.50;;;5.10;;
5237;SDS011;2639;49.700;7.962;2022-07-23T15:23:59;5.57;;;5.10;;
5237;SDS011;2639;49.700;7.962;2022-07-23T15:27:09;6.10;;;5.50;;
5237;SDS011;2639;49.700;7.962;2022-07-23T15:30:21;5.80;;;5.40;;
5237;SDS011;2639;49.700;7.962;2022-07-23T15:33:36;5.83;;;5.20;;
5237;SDS011;2639;49.700;7.962;2022-07-23T15:36:47;6.13;;;5.53;;
5237;SDS011;2639;49.700;7.962;2022-07-23T15:39:57;6.03;;;5.63;;
5237;SDS011;2639;49.700;7.962;2022-07-23T15:43:10;6.07;;;5.57;;
5237;SDS011;2639;49.700;7.962;2022-07-23T15:46:25;5.50;;;5.00;;
5237;SDS011;2639;49.700;7.962;2022-07-23T15:49:37;5.90;;;5.40;;
5237;SDS011;2639;49.700;7.962;2022-07-23T15:52:49;5.93;;;5.43;;
5237;SDS011;2639;49.700;7.962;2022-07-23T15:56:09;5.77;;;5.27;;
5237;SDS011;2639;49.700;7.962;2022-07-23T15:59:24;5.90;;;5.40;;
5237;SDS011;2639;49.700;7.962;2022-07-23T16:02:37;5.63;;;5.17;;
5237;SDS011;2639;49.700;7.962;2022-07-23T16:05:49;5.67;;;5.00;;
5237;SDS011;2639;49.700;7.962;2022-07-23T16:09:00;5.63;;;5.20;;
5237;SDS011;2639;49.700;7.962;2022-07-23T16:12:13;5.53;;;5.03;;
5237;SDS011;2639;49.700;7.962;2022-07-23T16:15:22;5.60;;;5.10;;
5237;SDS011;2639;49.700;7.962;2022-07-23T16:18:34;5.40;;;4.90;;
5237;SDS011;2639;49.700;7.962;2022-07-23T16:21:48;5.43;;;5.03;;
5237;SDS011;2639;49.700;7.962;2022-07-23T16:25:02;5.77;;;5.27;;
5237;SDS011;2639;49.700;7.962;2022-07-23T16:28:15;7.43;;;5.83;;
5237;SDS011;2639;49.700;7.962;2022-07-23T16:31:36;5.07;;;4.40;;
5237;SDS011;2639;49.700;7.962;2022-07-23T16:34:46;5.10;;;4.70;;
5237;SDS011;2639;49.700;7.962;2022-07-23T16:37:55;5.97;;;5.37;;
5237;SDS011;2639;49.700;7.962;2022-07-23T16:41:11;5.40;;;5.00;;
5237;SDS011;2639;49.700;7.962;2022-07-23T16:44:21;5.40;;;5.00;;
5237;SDS011;2639;49.700;7.962;2022-07-23T16:47:33;6.03;;;5.43;;
5237;SDS011;2639;49.700;7.962;2022-07-23T16:50:43;5.87;;;5.00;;
5237;SDS011;2639;49.700;7.962;2022-07-23T16:53:53;5.20;;;4.70;;
5237;SDS011;2639;49.700;7.962;2022-07-23T16:57:07;5.07;;;4.67;;
5237;SDS011;2639;49.700;7.962;2022-07-23T17:00:17;6.77;;;5.00;;
5237;SDS011;2639;49.700;7.962;2022-07-23T17:03:26;6.00;;;5.30;;
5237;SDS011;2639;49.700;7.962;2022-07-23T17:06:37;5.33;;;4.93;;
5237;SDS011;2639;49.700;7.962;2022-07-23T17:09:47;5.00;;;4.60;;
5237;SDS011;2639;49.700;7.962;2022-07-23T17:12:58;7.63;;;5.30;;
5237;SDS011;2639;49.700;7.962;2022-07-23T17:16:08;5.23;;;4.77;;
5237;SDS011;2639;49.700;7.962;2022-07-23T17:19:18;6.23;;;4.93;;
5237;SDS011;2639;49.700;7.962;2022-07-23T17:22:31;5.53;;;5.13;;
5237;SDS011;2639;49.700;7.962;2022-07-23T17:25:42;5.70;;;4.87;;
5237;SDS011;2639;49.700;7.962;2022-07-23T17:28:58;5.67;;;5.20;;
5237;SDS011;2639;49.700;7.962;2022-07-23T17:32:11;5.60;;;5.10;;
5237;SDS011;2639;49.700;7.962;2022-07-23T17:35:21;5.53;;;4.93;;
5237;SDS011;2639;49.700;7.962;2022-07-23T17:38:30;5.37;;;4.97;;
5237;SDS011;2639;49.700;7.962;2022-07-23T17:41:41;5.83;;;5.33;;
5237;SDS011;2639;49.700;7.962;2022-07-23T17:44:56;7.20;;;5.37;;
5237;SDS011;2639;49.700;7.962;2022-07-23T17:48:14;5.80;;;5.40;;
5237;SDS011;2639;49.700;7.962;2022-07-23T17:51:23;7.00;;;5.50;;
5237;SDS011;2639;49.700;7.962;2022-07-23T17:54:36;5.50;;;5.00;;
5237;SDS011;2639;49.700;7.962;2022-07-23T17:57:48;5.70;;;5.10;;
5237;SDS011;2639;49.700;7.962;2022-07-23T18:01:00;6.03;;;5.50;;
5237;SDS011;2639;49.700;7.962;2022-07-23T18:04:10;5.77;;;5.27;;
5237;SDS011;2639;49.700;7.962;2022-07-23T18:07:22;5.73;;;5.33;;
5237;SDS011;2639;49.700;7.962;2022-07-23T18:10:33;5.87;;;5.37;;
5237;SDS011;2639;49.700;7.962;2022-07-23T18:13:44;6.23;;;5.63;;
5237;SDS011;2639;49.700;7.962;2022-07-23T18:16:55;5.83;;;5.33;;
5237;SDS011;2639;49.700;7.962;2022-07-23T18:20:08;5.60;;;5.20;;
5237;SDS011;2639;49.700;7.962;2022-07-23T18:23:18;5.57;;;5.17;;
5237;SDS011;2639;49.700;7.962;2022-07-23T18:26:28;6.40;;;5.47;;
5237;SDS011;2639;49.700;7.962;2022-07-23T18:29:37;6.03;;;5.53;;
5237;SDS011;2639;49.700;7.962;2022-07-23T18:32:48;6.07;;;5.57;;
5237;SDS011;2639;49.700;7.962;2022-07-23T18:35:58;6.00;;;5.50;;
5237;SDS011;2639;49.700;7.962;2022-07-23T18:39:08;5.57;;;5.17;;
5237;SDS011;2639;49.700;7.962;2022-07-23T18:42:19;5.90;;;5.40;;
5237;SDS011;2639;49.700;7.962;2022-07-23T18:45:30;5.87;;;5.37;;
5237;SDS011;2639;49.700;7.962;2022-07-23T18:48:41;5.90;;;5.40;;
5237;SDS011;2639;49.700;7.962;2022-07-23T18:51:51;6.63;;;6.03;;
5237;SDS011;2639;49.700;7.962;2022-07-23T18:55:03;6.20;;;5.60;;
5237;SDS011;2639;49.700;7.962;2022-07-23T18:58:14;6.33;;;5.73;;
5237;SDS011;2639;49.700;7.962;2022-07-23T19:01:27;7.33;;;6.63;;
5237;SDS011;2639;49.700;7.962;2022-07-23T19:04:40;6.10;;;5.53;;
5237;SDS011;2639;49.700;7.962;2022-07-23T19:07:50;6.77;;;5.20;;
5237;SDS011;2639;49.700;7.962;2022-07-23T19:10:59;6.67;;;5.97;;
5237;SDS011;2639;49.700;7.962;2022-07-23T19:14:10;7.07;;;6.37;;
5237;SDS011;2639;49.700;7.962;2022-07-23T19:17:22;7.40;;;6.70;;
5237;SDS011;2639;49.700;7.962;2022-07-23T19:20:33;7.00;;;6.30;;
5237;SDS011;2639;49.700;7.962;2022-07-23T19:23:43;6.90;;;6.40;;
5237;SDS011;2639;49.700;7.962;2022-07-23T19:26:54;6.73;;;6.17;;
5237;SDS011;2639;49.700;7.962;2022-07-23T19:30:04;6.50;;;5.90;;
5237;SDS011;2639;49.700;7.962;2022-07-23T19:33:22;7.60;;;6.90;;
5237;SDS011;2639;49.700;7.962;2022-07-23T19:36:37;6.93;;;6.33;;
5237;SDS011;2639;49.700;7.962;2022-07-23T19:39:46;6.87;;;6.27;;
5237;SDS011;2639;49.700;7.962;2022-07-23T19:42:58;6.73;;;5.80;;
5237;SDS011;2639;49.700;7.962;2022-07-23T19:46:10;6.53;;;5.97;;
5237;SDS011;2639;49.700;7.962;2022-07-23T19:49:25;6.57;;;6.07;;
5237;SDS011;2639;49.700;7.962;2022-07-23T19:52:37;6.33;;;5.80;;
5237;SDS011;2639;49.700;7.962;2022-07-23T19:55:48;6.60;;;6.00;;
5237;SDS011;2639;49.700;7.962;2022-07-23T19:58:58;6.50;;;5.90;;
5237;SDS011;2639;49.700;7.962;2022-07-23T20:02:08;6.77;;;6.07;;
5237;SDS011;2639;49.700;7.962;2022-07-23T20:05:18;7.20;;;6.60;;
5237;SDS011;2639;49.700;7.962;2022-07-23T20:08:36;7.70;;;6.67;;
5237;SDS011;2639;49.700;7.962;2022-07-23T20:11:46;8.73;;;6.40;;
5237;SDS011;2639;49.700;7.962;2022-07-23T20:14:56;6.70;;;6.20;;
5237;SDS011;2639;49.700;7.962;2022-07-23T20:18:06;6.63;;;6.13;;
5237;SDS011;2639;49.700;7.962;2022-07-23T20:21:16;7.30;;;6.60;;
5237;SDS011;2639;49.700;7.962;2022-07-23T20:24:27;6.50;;;6.00;;
5237;SDS011;2639;49.700;7.962;2022-07-23T20:27:39;7.37;;;6.63;;
5237;SDS011;2639;49.700;7.962;2022-07-23T20:30:48;7.53;;;6.83;;
5237;SDS011;2639;49.700;7.962;2022-07-23T20:33:59;6.33;;;5.83;;
5237;SDS011;2639;49.700;7.962;2022-07-23T20:37:11;6.70;;;6.10;;
5237;SDS011;2639;49.700;7.962;2022-07-23T20:40:24;6.90;;;6.30;;
5237;SDS011;2639;49.700;7.962;2022-07-23T20:43:37;7.17;;;6.67;;
5237;SDS011;2639;49.700;7.962;2022-07-23T20:46:47;6.43;;;5.90;;
5237;SDS011;2639;49.700;7.962;2022-07-23T20:49:57;6.77;;;6.17;;
5237;SDS011;2639;49.700;7.962;2022-07-23T20:53:07;6.83;;;6.00;;
5237;SDS011;2639;49.700;7.962;2022-07-23T20:56:20;7.17;;;6.57;;
5237;SDS011;2639;49.700;7.962;2022-07-23T20:59:32;6.60;;;6.00;;
5237;SDS011;2639;49.700;7.962;2022-07-23T21:02:42;6.50;;;5.90;;
5237;SDS011;2639;49.700;7.962;2022-07-23T21:05:55;6.90;;;6.30;;
5237;SDS011;2639;49.700;7.962;2022-07-23T21:09:05;6.30;;;5.80;;
5237;SDS011;2639;49.700;7.962;2022-07-23T21:12:16;6.13;;;5.63;;
5237;SDS011;2639;49.700;7.962;2022-07-23T21:15:26;6.67;;;6.07;;
5237;SDS011;2639;49.700;7.962;2022-07-23T21:18:36;6.00;;;5.50;;
5237;SDS011;2639;49.700;7.962;2022-07-23T21:21:46;6.30;;;5.70;;
5237;SDS011;2639;49.700;7.962;2022-07-23T21:24:56;7.03;;;6.47;;
5237;SDS011;2639;49.700;7.962;2022-07-23T21:28:07;7.20;;;6.60;;
5237;SDS011;2639;49.700;7.962;2022-07-23T21:31:16;6.47;;;5.97;;
5237;SDS011;2639;49.700;7.962;2022-07-23T21:34:29;6.50;;;5.90;;
5237;SDS011;2639;49.700;7.962;2022-07-23T21:37:38;6.30;;;5.70;;
5237;SDS011;2639;49.700;7.962;2022-07-23T21:40:48;6.73;;;6.20;;
5237;SDS011;2639;49.700;7.962;2022-07-23T21:43:59;6.70;;;6.10;;
5237;SDS011;2639;49.700;7.962;2022-07-23T21:47:10;6.37;;;5.87;;
5237;SDS011;2639;49.700;7.962;2022-07-23T21:50:20;6.77;;;5.73;;
5237;SDS011;2639;49.700;7.962;2022-07-23T21:53:34;6.70;;;6.10;;
5237;SDS011;2639;49.700;7.962;2022-07-23T21:56:53;6.30;;;5.70;;
5237;SDS011;2639;49.700;7.962;2022-07-23T22:00:05;6.00;;;5.50;;
5237;SDS011;2639;49.700;7.962;2022-07-23T22:03:20;6.57;;;5.97;;
5237;SDS011;2639;49.700;7.962;2022-07-23T22:06:32;6.33;;;5.73;;
